Time;durP1;ratioP1;P1;durP2;ratioP2;P2;SDS_P1;SDS_P2;PMS_P1;PMS_P2;Temp;Humidity;BMP_temperature;BMP_pressure;BME280_temperature;BME280_humidity;BME280_pressure;Samples;Min_cycle;Max_cycle;Signal;HPM_P1;HPM_P2
2023/03/15 00:01:20;;;;;;;7.75;2.05;;;;;;;2.87;100.00;101059.50;5042634;28;20039;-75
2023/03/15 00:03:46;;;;;;;10.57;2.45;;;;;;;2.86;100.00;101059.56;5046693;28;20105;-75
2023/03/15 00:06:12;;;;;;;3.83;1.67;;;;;;;2.85;100.00;101053.38;5042829;28;20165;-75
2023/03/15 00:08:38;;;;;;;7.25;2.35;;;;;;;2.84;100.00;101064.94;5041061;28;21195;-75
2023/03/15 00:11:03;;;;;;;7.68;1.77;;;;;;;2.89;100.00;101056.78;5048537;28;20142;-76
2023/03/15 00:13:29;;;;;;;4.63;1.73;;;;;;;2.89;100.00;101044.38;5041617;28;20087;-75
2023/03/15 00:15:59;;;;;;;10.13;2.10;;;;;;;2.92;100.00;101051.38;5042448;28;20116;-75
2023/03/15 00:18:25;;;;;;;7.07;2.10;;;;;;;2.96;100.00;101053.00;5043005;28;20500;-75
2023/03/15 00:20:51;;;;;;;7.43;2.13;;;;;;;3.00;100.00;101065.19;5040816;28;20118;-75
2023/03/15 00:23:16;;;;;;;8.40;2.53;;;;;;;3.02;100.00;101062.50;5041687;28;20387;-75
2023/03/15 00:25:46;;;;;;;7.78;1.85;;;;;;;3.01;100.00;101055.47;5043187;28;20115;-75
2023/03/15 00:28:12;;;;;;;4.18;1.85;;;;;;;2.99;100.00;101060.84;5040287;28;20063;-76
2023/03/15 00:30:38;;;;;;;9.73;2.50;;;;;;;2.95;100.00;101061.88;5047461;28;20040;-76
2023/03/15 00:33:04;;;;;;;11.90;2.55;;;;;;;2.95;100.00;101072.50;5048759;28;20017;-75
2023/03/15 00:35:32;;;;;;;5.57;1.80;;;;;;;2.95;100.00;101062.72;5037825;28;20138;-75
2023/03/15 00:37:58;;;;;;;7.05;2.00;;;;;;;2.95;100.00;101059.22;5044011;28;20120;-76
2023/03/15 00:40:23;;;;;;;4.53;1.85;;;;;;;2.97;100.00;101063.56;5048179;28;20495;-76
2023/03/15 00:42:49;;;;;;;8.43;2.30;;;;;;;2.96;100.00;101068.91;5045384;28;20045;-76
2023/03/15 00:45:16;;;;;;;6.13;2.28;;;;;;;2.97;100.00;101063.56;5046214;28;20076;-75
2023/03/15 00:47:41;;;;;;;7.70;1.98;;;;;;;2.98;100.00;101067.06;5047527;28;20079;-76
2023/03/15 00:50:07;;;;;;;8.02;2.22;;;;;;;2.99;100.00;101063.50;5046642;28;20033;-75
2023/03/15 00:52:35;;;;;;;7.22;2.03;;;;;;;2.97;100.00;101060.91;5044322;28;20036;-76
2023/03/15 00:55:00;;;;;;;7.70;2.05;;;;;;;2.98;100.00;101056.44;5046641;28;20471;-75
2023/03/15 00:57:26;;;;;;;11.07;2.42;;;;;;;2.98;100.00;101067.06;5040944;28;20056;-76
2023/03/15 00:59:52;;;;;;;8.52;1.98;;;;;;;2.97;100.00;101062.66;5042577;28;20116;-75
2023/03/15 01:02:20;;;;;;;5.55;1.98;;;;;;;2.95;100.00;101057.41;5045135;28;20060;-76
2023/03/15 01:04:47;;;;;;;8.82;2.67;;;;;;;2.98;100.00;101059.09;5047142;28;20040;-76
2023/03/15 01:07:12;;;;;;;7.45;2.33;;;;;;;2.99;100.00;101066.16;5043151;28;20078;-76
2023/03/15 01:09:37;;;;;;;7.78;2.40;;;;;;;2.99;100.00;101066.16;5042831;28;20104;-75
2023/03/15 01:12:03;;;;;;;7.38;2.42;;;;;;;3.02;100.00;101076.66;5048270;28;20047;-75
2023/03/15 01:14:28;;;;;;;9.13;2.90;;;;;;;3.02;100.00;101063.38;5041380;28;20028;-75
2023/03/15 01:16:53;;;;;;;9.98;3.38;;;;;;;3.06;100.00;101070.28;5042616;28;20428;-75
2023/03/15 01:19:19;;;;;;;11.20;4.07;;;;;;;3.06;100.00;101072.94;5043835;28;20083;-76
2023/03/15 01:21:46;;;;;;;11.75;3.80;;;;;;;3.07;100.00;101076.47;5039464;28;20037;-75
2023/03/15 01:24:13;;;;;;;16.90;4.82;;;;;;;3.07;100.00;101074.66;5044561;28;20443;-76
2023/03/15 01:26:39;;;;;;;15.75;4.82;;;;;;;3.07;100.00;101076.47;5040795;28;20427;-76
2023/03/15 01:29:05;;;;;;;19.00;5.43;;;;;;;3.07;100.00;101079.97;5044520;28;20045;-75
2023/03/15 01:31:31;;;;;;;17.35;6.50;;;;;;;3.10;100.00;101086.97;5045386;28;20047;-76
2023/03/15 01:33:57;;;;;;;19.52;6.53;;;;;;;3.06;100.00;101091.53;5044317;28;20029;-76
2023/03/15 01:36:23;;;;;;;23.08;8.05;;;;;;;3.07;100.00;101092.41;5041965;28;20025;-76
2023/03/15 01:38:49;;;;;;;20.27;8.43;;;;;;;3.08;100.00;101096.78;5048192;28;20041;-76
2023/03/15 01:41:16;;;;;;;18.65;7.45;;;;;;;3.08;100.00;101099.44;5047236;28;20380;-75
2023/03/15 01:43:46;;;;;;;22.45;8.75;;;;;;;3.08;100.00;101097.66;5035318;28;20116;-76
2023/03/15 01:46:26;;;;;;;;;;;;;;;3.15;100.00;101095.63;5047482;28;20347;-75
2023/03/15 01:48:58;;;;;;;19.85;8.80;;;;;;;3.11;100.00;101100.19;5046608;28;19921;-75
2023/03/15 01:51:33;;;;;;;20.52;8.60;;;;;;;3.12;100.00;101082.47;5045580;28;20021;-75
2023/03/15 01:54:22;;;;;;;20.02;8.32;;;;;;;3.10;100.00;101101.09;5045374;28;20426;-76
2023/03/15 01:56:53;;;;;;;21.43;9.17;;;;;;;3.08;100.00;101095.00;5038104;28;20032;-76
2023/03/15 01:59:26;;;;;;;24.00;10.23;;;;;;;3.05;100.00;101111.03;5039679;28;20271;-76
2023/03/15 02:01:53;;;;;;;28.17;9.13;;;;;;;3.04;100.00;101103.13;5039472;28;20037;-75
2023/03/15 02:04:26;;;;;;;21.75;9.38;;;;;;;3.05;100.00;101115.50;5052983;28;20150;-75
2023/03/15 02:06:58;;;;;;;21.40;9.98;;;;;;;3.04;100.00;101109.31;5044774;28;20476;-75
2023/03/15 02:09:33;;;;;;;22.98;10.02;;;;;;;3.05;100.00;101121.66;5035687;28;20039;-75
2023/03/15 02:11:59;;;;;;;23.05;10.43;;;;;;;3.04;100.00;101135.00;5042240;28;20243;-75
2023/03/15 02:14:24;;;;;;;20.70;9.50;;;;;;;3.02;100.00;101129.75;5041584;28;20431;-75
2023/03/15 02:16:52;;;;;;;22.27;9.65;;;;;;;2.98;100.00;101125.47;5045255;28;20028;-75
2023/03/15 02:19:47;;;;;;;22.35;10.45;;;;;;;3.00;100.00;101131.56;5037927;28;20045;-75
2023/03/15 02:22:36;;;;;;;22.90;10.50;;;;;;;2.99;100.00;101132.53;5035453;28;20132;-75
2023/03/15 02:25:15;;;;;;;23.30;10.98;;;;;;;2.95;100.00;101133.56;5040606;28;20136;-75
2023/03/15 02:27:40;;;;;;;22.70;10.15;;;;;;;2.93;100.00;101132.75;5042603;28;20028;-75
2023/03/15 02:30:06;;;;;;;22.13;10.75;;;;;;;2.93;100.00;101128.31;5044160;28;20491;-75
2023/03/15 02:32:32;;;;;;;20.23;9.43;;;;;;;2.92;100.00;101131.00;5040101;28;20557;-75
2023/03/15 02:34:57;;;;;;;21.83;10.63;;;;;;;2.93;100.00;101132.75;5043438;28;20017;-75
2023/03/15 02:37:23;;;;;;;22.60;9.90;;;;;;;2.94;100.00;101140.66;5045941;28;20043;-75
2023/03/15 02:39:48;;;;;;;21.75;9.82;;;;;;;2.95;100.00;101133.56;5042926;28;20500;-75
2023/03/15 02:42:13;;;;;;;20.98;8.85;;;;;;;3.00;100.00;101139.53;5043817;28;20040;-75
2023/03/15 02:44:42;;;;;;;20.00;8.25;;;;;;;2.98;100.00;101144.91;5038576;28;20036;-75
2023/03/15 02:47:31;;;;;;;21.60;8.97;;;;;;;3.03;100.00;101143.88;5043958;28;20063;-75
2023/03/15 02:49:57;;;;;;;19.45;8.35;;;;;;;2.96;100.00;101149.41;5046528;28;20025;-75
2023/03/15 02:52:22;;;;;;;20.02;9.07;;;;;;;2.93;100.00;101151.34;5043045;28;20031;-75
2023/03/15 02:54:48;;;;;;;20.40;8.70;;;;;;;2.90;100.00;101147.00;5046486;28;20044;-75
2023/03/15 02:57:16;;;;;;;19.05;8.48;;;;;;;2.85;100.00;101164.00;5049465;28;20108;-75
2023/03/15 02:59:41;;;;;;;18.90;7.93;;;;;;;2.79;100.00;101157.13;5046104;28;20071;-75
2023/03/15 03:02:08;;;;;;;19.40;8.05;;;;;;;2.75;100.00;101153.72;5038008;28;20032;-75
2023/03/15 03:04:33;;;;;;;21.70;8.30;;;;;;;2.72;100.00;101166.22;5040544;28;20027;-75
2023/03/15 03:06:59;;;;;;;21.90;9.27;;;;;;;2.69;100.00;101167.19;5042952;28;20024;-75
2023/03/15 03:09:25;;;;;;;23.58;8.63;;;;;;;2.64;100.00;101174.47;5045074;28;20100;-75
2023/03/15 03:11:50;;;;;;;20.00;8.27;;;;;;;2.62;100.00;101181.59;5049886;28;20461;-75
2023/03/15 03:14:15;;;;;;;19.55;8.88;;;;;;;2.60;100.00;101194.94;5044080;28;20072;-75
2023/03/15 03:16:44;;;;;;;17.23;7.07;;;;;;;2.60;100.00;101194.06;5040965;28;20037;-75
2023/03/15 03:19:13;;;;;;;21.67;8.57;;;;;;;2.56;100.00;101195.97;5048171;28;20052;-75
2023/03/15 03:21:38;;;;;;;19.17;7.28;;;;;;;2.51;100.00;101195.25;5039954;28;20024;-75
2023/03/15 03:24:04;;;;;;;19.55;7.50;;;;;;;2.48;100.00;101210.41;5048774;28;20044;-75
2023/03/15 03:26:31;;;;;;;21.52;7.85;;;;;;;2.44;100.00;101207.00;5047067;28;20083;-75
2023/03/15 03:28:57;;;;;;;18.88;8.13;;;;;;;2.44;100.00;101210.50;5041442;28;20353;-75
2023/03/15 03:31:26;;;;;;;21.17;7.35;;;;;;;2.40;100.00;101215.97;5043995;28;20021;-75
2023/03/15 03:33:54;;;;;;;20.60;8.45;;;;;;;2.34;100.00;101209.06;5049786;28;20593;-75
2023/03/15 03:36:19;;;;;;;21.17;8.32;;;;;;;2.29;100.00;101208.38;5041435;28;20047;-75
2023/03/15 03:38:45;;;;;;;20.17;8.35;;;;;;;2.25;100.00;101225.28;5043493;28;20402;-75
2023/03/15 03:41:12;;;;;;;20.08;8.05;;;;;;;2.19;100.00;101226.34;5045603;28;20025;-75
2023/03/15 03:43:38;;;;;;;19.00;7.45;;;;;;;2.16;100.00;101237.06;5045411;28;20036;-75
2023/03/15 03:46:03;;;;;;;19.15;7.93;;;;;;;2.12;100.00;101237.22;5045002;28;20033;-75
2023/03/15 03:48:30;;;;;;;20.33;7.85;;;;;;;2.07;100.00;101240.88;5043271;28;20036;-75
2023/03/15 03:50:56;;;;;;;20.42;8.00;;;;;;;2.00;100.00;101241.97;5041069;28;20028;-75
2023/03/15 03:53:21;;;;;;;19.67;7.32;;;;;;;1.95;100.00;101240.38;5042331;28;20028;-75
2023/03/15 03:55:46;;;;;;;17.65;6.43;;;;;;;1.90;100.00;101237.88;5045216;28;20051;-75
2023/03/15 03:58:11;;;;;;;20.33;8.20;;;;;;;1.84;100.00;101241.59;5041876;28;20032;-75
2023/03/15 04:00:38;;;;;;;19.20;7.30;;;;;;;1.80;100.00;101241.72;5040181;28;20048;-75
2023/03/15 04:03:03;;;;;;;20.70;8.35;;;;;;;1.74;100.00;101248.97;5038220;28;20035;-75
2023/03/15 04:05:29;;;;;;;20.75;7.95;;;;;;;1.64;100.00;101254.56;5041183;28;20091;-75
2023/03/15 04:07:54;;;;;;;19.95;8.07;;;;;;;1.56;100.00;101258.31;5045838;28;20500;-75
2023/03/15 04:10:25;;;;;;;21.23;8.00;;;;;;;1.53;100.00;101262.84;5060618;28;20021;-75
2023/03/15 04:12:52;;;;;;;17.73;6.88;;;;;;;1.46;100.00;101270.09;5040842;28;20033;-75
2023/03/15 04:15:18;;;;;;;20.73;7.85;;;;;;;1.38;100.00;101269.47;5046304;28;20075;-75
2023/03/15 04:17:44;;;;;;;18.88;7.15;;;;;;;1.32;100.00;101280.22;5044107;28;20095;-75
2023/03/15 04:20:11;;;;;;;19.52;7.38;;;;;;;1.30;100.00;101277.59;5045439;28;20037;-75
2023/03/15 04:22:37;;;;;;;20.13;7.72;;;;;;;1.31;100.00;101289.94;5040761;28;20396;-75
2023/03/15 04:25:03;;;;;;;20.35;8.10;;;;;;;1.28;100.00;101290.03;5045220;28;20044;-75
2023/03/15 04:27:29;;;;;;;23.98;8.57;;;;;;;1.24;100.00;101288.38;5047484;28;20089;-75
2023/03/15 04:29:54;;;;;;;20.45;8.25;;;;;;;1.27;100.00;101288.28;5049684;28;20119;-75
2023/03/15 04:32:20;;;;;;;17.80;7.82;;;;;;;1.22;100.00;101290.19;5047242;28;20119;-75
2023/03/15 04:34:50;;;;;;;23.33;7.97;;;;;;;1.21;100.00;101299.03;5043932;28;20700;-75
2023/03/15 04:37:16;;;;;;;18.83;7.72;;;;;;;1.20;100.00;101299.94;5046917;28;20159;-75
2023/03/15 04:39:41;;;;;;;22.52;8.40;;;;;;;1.20;100.00;101297.28;5049686;28;20036;-75
2023/03/15 04:42:07;;;;;;;19.60;7.70;;;;;;;1.18;100.00;101301.78;5047898;28;20024;-75
2023/03/15 04:44:32;;;;;;;19.48;7.00;;;;;;;1.17;100.00;101318.56;5041581;28;20461;-75
2023/03/15 04:46:58;;;;;;;18.88;7.13;;;;;;;1.10;100.00;101311.69;5045776;28;20599;-75
2023/03/15 04:49:26;;;;;;;19.40;7.35;;;;;;;1.10;100.00;101316.97;5047501;28;20032;-75
2023/03/15 04:51:51;;;;;;;20.77;7.97;;;;;;;1.10;100.00;101317.88;5045737;28;20031;-75
2023/03/15 04:54:16;;;;;;;18.75;7.20;;;;;;;1.05;100.00;101319.75;5044324;28;20116;-75
2023/03/15 04:56:42;;;;;;;20.10;7.45;;;;;;;1.04;100.00;101320.69;5038517;28;20025;-75
2023/03/15 04:59:09;;;;;;;20.45;7.15;;;;;;;1.00;100.00;101330.47;5041964;28;20037;-75
2023/03/15 05:01:34;;;;;;;17.58;7.18;;;;;;;0.93;100.00;101326.25;5034135;28;20037;-75
2023/03/15 05:04:00;;;;;;;20.83;7.30;;;;;;;0.92;100.00;101324.50;5044059;28;20037;-75
2023/03/15 05:06:25;;;;;;;21.15;7.85;;;;;;;0.91;100.00;101329.81;5044758;28;20108;-75
2023/03/15 05:08:51;;;;;;;19.10;6.35;;;;;;;0.86;100.00;101336.13;5039330;28;20035;-75
2023/03/15 05:11:16;;;;;;;17.92;7.00;;;;;;;0.86;100.00;101337.88;5040254;28;20047;-75
2023/03/15 05:13:41;;;;;;;19.83;7.57;;;;;;;0.83;100.00;101338.81;5040988;28;20106;-75
2023/03/15 05:16:07;;;;;;;19.63;7.57;;;;;;;0.80;100.00;101346.84;5045306;28;20445;-75
2023/03/15 05:18:32;;;;;;;21.50;8.77;;;;;;;0.80;100.00;101335.41;5045354;28;20036;-75
2023/03/15 05:20:58;;;;;;;20.90;7.95;;;;;;;0.77;100.00;101340.78;5045226;28;20021;-75
2023/03/15 05:23:24;;;;;;;20.33;8.48;;;;;;;0.69;100.00;101348.91;5039000;28;20029;-75
2023/03/15 05:25:54;;;;;;;21.80;7.82;;;;;;;0.63;100.00;101349.03;5042214;28;20441;-75
2023/03/15 05:28:23;;;;;;;19.83;8.25;;;;;;;0.58;100.00;101353.56;5041748;28;20021;-75
2023/03/15 05:30:50;;;;;;;18.70;7.78;;;;;;;0.56;100.00;101361.53;5042717;28;20021;-75
2023/03/15 05:33:16;;;;;;;19.27;7.15;;;;;;;0.52;100.00;101359.88;5040916;28;20071;-74
2023/03/15 05:35:43;;;;;;;19.70;7.57;;;;;;;0.47;100.00;101362.63;5041418;28;20029;-74
2023/03/15 05:38:08;;;;;;;20.92;6.72;;;;;;;0.43;100.00;101355.66;5040767;28;20445;-75
2023/03/15 05:40:34;;;;;;;20.75;7.28;;;;;;;0.42;100.00;101364.50;5043533;28;20021;-75
2023/03/15 05:42:59;;;;;;;20.10;7.40;;;;;;;0.40;100.00;101370.75;5039977;28;20029;-75
2023/03/15 05:45:24;;;;;;;18.33;7.10;;;;;;;0.38;100.00;101369.88;5039251;28;20029;-75
2023/03/15 05:47:50;;;;;;;18.13;6.63;;;;;;;0.34;100.00;101380.53;5040334;28;20351;-75
2023/03/15 05:50:15;;;;;;;19.10;7.18;;;;;;;0.30;100.00;101373.56;5045579;28;20111;-75
2023/03/15 05:52:41;;;;;;;21.45;7.88;;;;;;;0.30;100.00;101378.84;5046025;28;20059;-75
2023/03/15 05:55:07;;;;;;;19.48;7.22;;;;;;;0.30;100.00;101378.84;5040590;28;20403;-75
2023/03/15 05:57:32;;;;;;;18.90;7.05;;;;;;;0.28;100.00;101385.97;5043274;28;20025;-75
2023/03/15 05:59:57;;;;;;;19.23;7.85;;;;;;;0.29;100.00;101385.06;5037837;28;20599;-75
2023/03/15 06:02:23;;;;;;;20.88;7.38;;;;;;;0.27;100.00;101393.94;5037398;28;20579;-75
2023/03/15 06:04:48;;;;;;;19.42;7.05;;;;;;;0.26;100.00;101398.31;5042795;28;20702;-75
2023/03/15 06:07:13;;;;;;;20.52;7.72;;;;;;;0.24;100.00;101405.44;5040994;28;20033;-75
2023/03/15 06:09:38;;;;;;;22.38;7.70;;;;;;;0.27;100.00;101413.28;5041343;28;20384;-75
2023/03/15 06:12:04;;;;;;;19.85;7.35;;;;;;;0.31;100.00;101412.34;5046002;28;20064;-75
2023/03/15 06:14:30;;;;;;;20.67;8.23;;;;;;;0.36;100.00;101412.22;5045091;28;20029;-75
2023/03/15 06:16:55;;;;;;;19.08;7.40;;;;;;;0.38;100.00;101412.19;5044150;28;20143;-75
2023/03/15 06:19:21;;;;;;;19.40;7.85;;;;;;;0.41;100.00;101412.13;5037942;28;20496;-75
2023/03/15 06:21:46;;;;;;;20.67;8.30;;;;;;;0.45;100.00;101414.66;5039643;28;20025;-75
2023/03/15 06:24:12;;;;;;;22.23;9.10;;;;;;;0.50;100.00;101426.03;5046671;28;20040;-75
2023/03/15 06:26:38;;;;;;;19.42;7.25;;;;;;;0.58;100.00;101436.44;5042622;28;20948;-75
2023/03/15 06:29:03;;;;;;;22.23;8.07;;;;;;;0.68;100.00;101443.25;5046611;28;20583;-75
2023/03/15 06:31:28;;;;;;;21.65;9.20;;;;;;;0.80;100.00;101446.53;5045807;28;20048;-75
2023/03/15 06:33:54;;;;;;;21.13;8.85;;;;;;;0.90;100.00;101453.34;5043860;28;20116;-75
2023/03/15 06:36:19;;;;;;;22.67;9.02;;;;;;;0.99;100.00;101457.56;5036778;28;20032;-75
2023/03/15 06:38:44;;;;;;;21.63;8.68;;;;;;;1.07;100.00;101455.59;5041117;28;20059;-75
2023/03/15 06:41:14;;;;;;;23.35;9.05;;;;;;;1.14;100.00;101462.50;5045466;28;20029;-75
2023/03/15 06:43:40;;;;;;;21.25;8.85;;;;;;;1.20;100.00;101472.03;5035517;28;20032;-75
2023/03/15 06:46:05;;;;;;;25.92;9.02;;;;;;;1.29;100.00;101477.13;5037972;28;20029;-75
2023/03/15 06:48:30;;;;;;;25.15;9.25;;;;;;;1.35;100.00;101474.31;5045524;28;20067;-75
2023/03/15 06:50:56;;;;;;;22.88;8.68;;;;;;;1.40;100.00;101476.84;5044139;28;20029;-75
2023/03/15 06:53:21;;;;;;;20.25;8.80;;;;;;;1.46;100.00;101481.13;5046793;28;20064;-75
2023/03/15 06:55:47;;;;;;;21.50;8.98;;;;;;;1.53;100.00;101488.00;5043209;28;20151;-75
2023/03/15 06:58:13;;;;;;;23.38;8.85;;;;;;;1.57;100.00;101497.63;5045188;28;20369;-75
2023/03/15 07:00:38;;;;;;;21.70;8.52;;;;;;;1.62;100.00;101493.06;5048875;28;20124;-75
2023/03/15 07:03:04;;;;;;;21.67;9.85;;;;;;;1.63;100.00;101494.81;5042642;28;20039;-75
2023/03/15 07:05:29;;;;;;;21.88;8.85;;;;;;;1.65;100.00;101500.94;5040632;28;20075;-75
2023/03/15 07:07:55;;;;;;;24.65;11.18;;;;;;;1.67;100.00;101509.75;5039707;28;20037;-75
2023/03/15 07:10:20;;;;;;;24.58;9.25;;;;;;;1.69;100.00;101512.34;5048605;28;20476;-75
2023/03/15 07:12:45;;;;;;;21.73;9.05;;;;;;;1.72;100.00;101515.78;5048706;28;20075;-75
2023/03/15 07:15:11;;;;;;;21.20;8.57;;;;;;;1.75;100.00;101509.53;5052640;28;20473;-75
2023/03/15 07:17:36;;;;;;;24.20;9.15;;;;;;;1.79;100.00;101512.97;5039196;28;20029;-75
2023/03/15 07:20:04;;;;;;;21.95;8.88;;;;;;;1.87;100.00;101524.25;5041546;28;20535;-75
2023/03/15 07:22:33;;;;;;;21.77;9.70;;;;;;;1.92;100.00;101525.88;5042781;28;20036;-75
2023/03/15 07:24:58;;;;;;;25.65;10.70;;;;;;;2.02;100.00;101534.47;5047119;28;20032;-75
2023/03/15 07:27:24;;;;;;;24.08;9.65;;;;;;;2.10;100.00;101540.41;5043216;28;20039;-75
2023/03/15 07:29:49;;;;;;;22.90;10.13;;;;;;;2.15;100.00;101537.63;5035960;28;20036;-75
2023/03/15 07:32:14;;;;;;;21.80;8.63;;;;;;;2.23;100.00;101538.28;5039131;28;20510;-75
2023/03/15 07:34:40;;;;;;;23.10;9.38;;;;;;;2.27;100.00;101541.75;5038137;28;20472;-75
2023/03/15 07:37:05;;;;;;;20.25;8.55;;;;;;;2.31;100.00;101542.53;5041293;28;20041;-75
2023/03/15 07:39:34;;;;;;;21.85;8.93;;;;;;;2.33;100.00;101549.53;5048681;28;20112;-75
2023/03/15 07:41:59;;;;;;;26.08;9.95;;;;;;;2.36;100.00;101546.78;5046374;28;20112;-75
2023/03/15 07:44:25;;;;;;;21.40;8.80;;;;;;;2.41;100.00;101550.16;5040920;28;20029;-75
2023/03/15 07:46:50;;;;;;;22.02;8.80;;;;;;;2.45;100.00;101564.22;5037715;28;20024;-75
2023/03/15 07:49:16;;;;;;;21.23;8.43;;;;;;;2.54;100.00;101560.44;5049712;28;20464;-75
2023/03/15 07:51:42;;;;;;;22.40;8.65;;;;;;;2.55;100.00;101562.19;5045780;28;20381;-75
2023/03/15 07:54:07;;;;;;;21.15;7.97;;;;;;;2.59;100.00;101571.78;5045615;28;20095;-75
2023/03/15 07:56:33;;;;;;;20.58;7.47;;;;;;;2.64;100.00;101577.84;5047650;28;20043;-75
2023/03/15 07:58:58;;;;;;;20.75;8.32;;;;;;;2.69;100.00;101577.72;5059812;28;20040;-75
2023/03/15 08:01:23;;;;;;;22.80;8.02;;;;;;;2.73;100.00;101593.50;5044474;28;20041;-75
2023/03/15 08:03:49;;;;;;;23.65;7.95;;;;;;;2.77;100.00;101594.31;5050358;28;20037;-75
2023/03/15 08:06:14;;;;;;;21.42;8.10;;;;;;;2.83;100.00;101595.91;5044397;28;20024;-75
2023/03/15 08:08:39;;;;;;;20.40;7.55;;;;;;;2.87;100.00;101593.13;5050444;28;20116;-75
2023/03/15 08:11:05;;;;;;;19.92;6.82;;;;;;;2.92;100.00;101603.59;5047279;28;20068;-75
2023/03/15 08:13:30;;;;;;;20.90;7.15;;;;;;;2.99;100.00;101610.47;5049847;28;20528;-75
2023/03/15 08:15:55;;;;;;;17.10;6.05;;;;;;;3.05;100.00;101612.09;5045988;28;20027;-75
2023/03/15 08:18:21;;;;;;;19.20;6.82;;;;;;;3.09;100.00;101617.25;5049075;28;20053;-75
2023/03/15 08:20:46;;;;;;;19.23;7.53;;;;;;;3.15;100.00;101614.41;5047495;28;20013;-75
2023/03/15 08:23:15;;;;;;;24.55;6.75;;;;;;;3.20;100.00;101608.94;5051131;28;20052;-75
2023/03/15 08:25:41;;;;;;;16.83;5.88;;;;;;;3.25;100.00;101627.41;5045635;28;20052;-75
2023/03/15 08:28:07;;;;;;;19.90;6.35;;;;;;;3.27;100.00;101630.91;5051687;28;20524;-75
2023/03/15 08:30:32;;;;;;;17.08;6.10;;;;;;;3.33;100.00;101641.34;5065014;28;20087;-75
2023/03/15 08:32:58;;;;;;;20.08;6.50;;;;;;;3.38;100.00;101639.41;5049491;28;20549;-75
2023/03/15 08:35:23;;;;;;;19.88;6.57;;;;;;;3.42;100.00;101646.38;5046930;28;20223;-75
2023/03/15 08:37:51;;;;;;;21.27;6.72;;;;;;;3.45;100.00;101640.94;5048670;28;20024;-75
2023/03/15 08:40:24;;;;;;;20.65;6.40;;;;;;;3.51;100.00;101639.88;5043584;28;20021;-75
2023/03/15 08:42:50;;;;;;;18.52;6.57;;;;;;;3.59;100.00;101643.19;5048255;28;20027;-75
2023/03/15 08:45:15;;;;;;;22.27;5.95;;;;;;;3.65;99.56;101648.31;5048748;28;20024;-75
2023/03/15 08:47:41;;;;;;;16.73;5.15;;;;;;;3.70;98.19;101655.28;5051015;28;20040;-75
2023/03/15 08:50:10;;;;;;;19.00;5.45;;;;;;;3.74;98.47;101656.94;5050160;28;20032;-75
2023/03/15 08:52:35;;;;;;;18.27;5.80;;;;;;;3.78;99.88;101654.13;5046486;28;20024;-75
2023/03/15 08:55:03;;;;;;;16.67;5.45;;;;;;;3.82;98.95;101655.75;5052368;28;20044;-75
2023/03/15 08:57:31;;;;;;;16.40;5.40;;;;;;;3.90;99.29;101657.31;5046240;28;20025;-75
2023/03/15 08:59:58;;;;;;;18.98;5.80;;;;;;;3.92;97.64;101656.31;5050472;28;20093;-75
2023/03/15 09:02:27;;;;;;;18.23;5.10;;;;;;;3.95;97.25;101663.34;5048393;28;20111;-75
2023/03/15 09:04:53;;;;;;;18.52;4.90;;;;;;;3.98;96.58;101663.22;5046237;28;20016;-75
2023/03/15 09:07:19;;;;;;;19.33;4.88;;;;;;;3.99;94.83;101667.63;5043907;28;20029;-75
2023/03/15 09:09:47;;;;;;;15.15;3.97;;;;;;;4.01;96.16;101672.00;5045007;28;20037;-75
2023/03/15 09:12:13;;;;;;;20.08;4.40;;;;;;;4.05;96.07;101672.75;5047169;28;20033;-75
2023/03/15 09:14:39;;;;;;;15.40;4.30;;;;;;;4.06;93.70;101668.31;5044732;28;20028;-75
2023/03/15 09:17:04;;;;;;;14.18;3.28;;;;;;;4.08;92.48;101671.78;5048007;28;20037;-75
2023/03/15 09:19:31;;;;;;;10.85;3.80;;;;;;;4.09;91.76;101673.53;5043790;28;20078;-75
2023/03/15 09:21:56;;;;;;;18.13;4.45;;;;;;;4.12;93.92;101673.44;5046337;28;20057;-75
2023/03/15 09:24:22;;;;;;;15.05;4.53;;;;;;;4.16;95.03;101672.41;5045543;28;20138;-75
2023/03/15 09:26:47;;;;;;;17.48;4.88;;;;;;;4.17;93.56;101669.69;5051228;28;20375;-75
2023/03/15 09:29:12;;;;;;;10.70;3.72;;;;;;;4.18;93.51;101675.88;5047855;28;20033;-75
2023/03/15 09:31:38;;;;;;;13.68;3.97;;;;;;;4.18;93.08;101682.06;5048833;28;20125;-75
2023/03/15 09:34:04;;;;;;;11.68;3.22;;;;;;;4.17;90.67;101680.34;5048791;28;20040;-75
2023/03/15 09:36:30;;;;;;;10.15;2.95;;;;;;;4.19;87.22;101673.16;5049217;28;20032;-75
2023/03/15 09:38:56;;;;;;;16.10;3.63;;;;;;;4.22;86.84;101668.66;5044163;28;20465;-75
2023/03/15 09:41:52;;;;;;;19.55;3.67;;;;;;;4.26;90.52;101676.50;5048793;28;20033;-75
2023/03/15 09:44:51;;;;;;;10.43;3.55;;;;;;;4.32;89.92;101670.06;5050091;28;20029;-75
2023/03/15 09:47:41;;;;;;;13.20;3.40;;;;;;;4.35;89.27;101685.97;5042406;28;20039;-75
2023/03/15 09:50:24;;;;;;;16.13;3.15;;;;;;;4.36;87.37;101677.03;5048097;28;20021;-75
2023/03/15 09:53:02;;;;;;;12.15;3.13;;;;;;;4.43;87.04;101677.72;5048895;28;20017;-75
2023/03/15 09:55:28;;;;;;;16.42;3.22;;;;;;;4.48;85.15;101676.63;5047237;28;20039;-75
2023/03/15 09:57:58;;;;;;;11.68;3.25;;;;;;;4.55;86.14;101675.50;5041761;28;20958;-75
2023/03/15 10:00:45;;;;;;;17.60;3.80;;;;;;;4.66;86.05;101687.56;5048908;28;20090;-75
2023/03/15 10:03:21;;;;;;;9.90;2.88;;;;;;;4.72;82.52;101687.34;5047040;28;20488;-75
2023/03/15 10:05:57;;;;;;;15.45;3.15;;;;;;;4.75;86.83;101683.72;5050084;28;20464;-75
2023/03/15 10:08:25;;;;;;;13.77;2.45;;;;;;;4.77;82.78;101680.06;5045842;28;20029;-75
2023/03/15 10:11:09;;;;;;;13.18;3.33;;;;;;;4.86;85.15;101676.19;5045337;28;20978;-75
2023/03/15 10:13:44;;;;;;;7.82;2.25;;;;;;;4.96;83.54;101666.94;5050190;28;20031;-75
2023/03/15 10:16:24;;;;;;;20.63;3.28;;;;;;;5.09;80.26;101672.69;5048464;28;20044;-75
2023/03/15 10:18:52;;;;;;;;;;;;;;;5.17;84.17;101675.06;5044215;28;20404;-75
2023/03/15 10:21:44;;;;;;;12.73;2.13;;;;;;;5.20;80.46;101674.97;5044812;28;20039;-75
2023/03/15 10:24:17;;;;;;;19.92;3.28;;;;;;;5.22;79.79;101678.44;5048541;28;20036;-75
2023/03/15 10:26:43;;;;;;;12.30;2.78;;;;;;;5.28;82.35;101680.88;5048296;28;20029;-75
2023/03/15 10:29:14;;;;;;;11.82;2.92;;;;;;;5.32;80.26;101677.16;5046868;28;20025;-75
2023/03/15 10:31:42;;;;;;;7.60;2.25;;;;;;;5.38;79.72;101679.59;5045264;28;20475;-75
2023/03/15 10:34:10;;;;;;;10.85;2.42;;;;;;;5.49;81.09;101673.84;5048020;28;20033;-75
2023/03/15 10:36:36;;;;;;;7.47;2.25;;;;;;;5.54;77.05;101679.88;5063513;28;20025;-75
2023/03/15 10:39:03;;;;;;;15.18;2.45;;;;;;;5.64;79.44;101680.38;5046619;28;20029;-75
2023/03/15 10:41:39;;;;;;;7.35;2.28;;;;;;;5.69;77.72;101683.72;5043497;28;20572;-75
2023/03/15 10:44:10;;;;;;;15.27;3.10;;;;;;;5.72;75.11;101686.25;5045162;28;20431;-75
2023/03/15 10:46:36;;;;;;;11.88;2.83;;;;;;;5.74;76.17;101694.22;5050397;28;20448;-75
2023/03/15 10:49:10;;;;;;;12.55;3.13;;;;;;;5.80;76.58;101695.78;5045523;28;20029;-75
2023/03/15 10:51:46;;;;;;;11.40;2.92;;;;;;;5.88;74.16;101691.88;5051739;28;20367;-75
2023/03/15 10:54:19;;;;;;;12.50;2.50;;;;;;;5.95;69.94;101698.69;5055046;28;20102;-75
2023/03/15 10:56:51;;;;;;;10.05;2.97;;;;;;;6.02;69.56;101704.69;5046483;28;20039;-75
2023/03/15 10:59:19;;;;;;;11.25;2.75;;;;;;;6.11;71.45;101708.78;5043984;28;20060;-75
2023/03/15 11:01:51;;;;;;;12.00;2.58;;;;;;;6.18;70.80;101715.63;5047006;28;20021;-75
2023/03/15 11:04:20;;;;;;;15.20;2.40;;;;;;;6.20;70.61;101715.56;5060021;28;20028;-75
2023/03/15 11:06:57;;;;;;;8.18;2.38;;;;;;;6.24;72.60;101719.84;5046181;28;20112;-75
2023/03/15 11:09:25;;;;;;;7.47;2.38;;;;;;;6.19;69.67;101714.66;5043177;28;20041;-75
2023/03/15 11:11:50;;;;;;;12.13;3.08;;;;;;;6.18;68.26;101726.28;5044384;28;20021;-75
2023/03/15 11:14:17;;;;;;;12.40;2.83;;;;;;;6.16;69.47;101730.81;5048288;28;20124;-75
2023/03/15 11:16:46;;;;;;;12.50;3.03;;;;;;;6.11;68.33;101732.81;5051129;28;20029;-75
2023/03/15 11:19:16;;;;;;;10.00;2.85;;;;;;;6.06;67.80;101732.13;5046948;28;20476;-75
2023/03/15 11:21:43;;;;;;;12.55;2.50;;;;;;;6.02;69.80;101739.38;5046991;28;20087;-75